PATK/TKA METAR and TAF weather

Enter ICAO airport designator
Station Type Date Time Source
PATK METAR 2020/08/15 16:53 UTC NOAA

PATK 151653Z 03004KT 10SM CLR 14/07 A2979 RMK AO2 SLP089 T01390067


Station Type Date Time Source
PATK Decoded METAR 2020/08/15 16:53 UTC NOAA

TALKEETNA AIRPORT, AK, United States (PATK) 62-19N 150-06W 109M
Aug 15, 2020 - 12:53 PM EDT / 2020.08.15 1653 UTC
Wind: from the NNE (030 degrees) at 5 MPH (4 KT):0
Visibility: 10 mile(s):0
Sky conditions: clear
Temperature: 57.0 F (13.9 C)
Dew Point: 44.1 F (6.7 C)
Relative Humidity: 61%
Pressure (altimeter): 29.79 in. Hg (1008 hPa)
ob: PATK 151653Z 03004KT 10SM CLR 14/07 A2979 RMK AO2 SLP089 T01390067
cycle: 17

Station Type Date Time Source
PATK TAF 2020/08/15 12:36 UTC NOAA

TAF PATK 151134Z 1512/1612 VRB06KT P6SM SKC
FM151700 02012G25KT P6SM SKC

Example: see airport list